sensor_id;sensor_type;location;lat;lon;timestamp;P1;durP1;ratioP1;P2;durP2;ratioP2
12059;SDS011;6091;51.432;6.880;2023-07-20T00:02:19;1.73;;;1.23;;
12059;SDS011;6091;51.432;6.880;2023-07-20T00:04:46;1.42;;;1.10;;
12059;SDS011;6091;51.432;6.880;2023-07-20T00:07:13;1.40;;;1.30;;
12059;SDS011;6091;51.432;6.880;2023-07-20T00:09:41;2.15;;;1.60;;
12059;SDS011;6091;51.432;6.880;2023-07-20T00:12:08;1.50;;;1.40;;
12059;SDS011;6091;51.432;6.880;2023-07-20T00:14:35;1.60;;;1.23;;
12059;SDS011;6091;51.432;6.880;2023-07-20T00:17:02;1.52;;;1.20;;
12059;SDS011;6091;51.432;6.880;2023-07-20T00:19:29;2.40;;;1.30;;
12059;SDS011;6091;51.432;6.880;2023-07-20T00:21:58;1.60;;;1.10;;
12059;SDS011;6091;51.432;6.880;2023-07-20T00:24:25;2.08;;;1.42;;
12059;SDS011;6091;51.432;6.880;2023-07-20T00:26:53;1.60;;;1.50;;
12059;SDS011;6091;51.432;6.880;2023-07-20T00:29:20;2.55;;;1.35;;
12059;SDS011;6091;51.432;6.880;2023-07-20T00:31:47;1.27;;;1.10;;
12059;SDS011;6091;51.432;6.880;2023-07-20T00:34:17;1.45;;;1.30;;
12059;SDS011;6091;51.432;6.880;2023-07-20T00:36:44;1.35;;;1.02;;
12059;SDS011;6091;51.432;6.880;2023-07-20T00:39:11;1.45;;;1.35;;
12059;SDS011;6091;51.432;6.880;2023-07-20T00:41:41;1.80;;;1.30;;
12059;SDS011;6091;51.432;6.880;2023-07-20T00:44:08;1.20;;;1.10;;
12059;SDS011;6091;51.432;6.880;2023-07-20T00:46:35;1.42;;;1.20;;
12059;SDS011;6091;51.432;6.880;2023-07-20T00:49:03;1.63;;;1.27;;
12059;SDS011;6091;51.432;6.880;2023-07-20T00:51:31;1.20;;;1.10;;
12059;SDS011;6091;51.432;6.880;2023-07-20T00:53:58;1.27;;;1.17;;
12059;SDS011;6091;51.432;6.880;2023-07-20T00:56:25;1.52;;;1.00;;
12059;SDS011;6091;51.432;6.880;2023-07-20T00:58:52;1.40;;;1.30;;
12059;SDS011;6091;51.432;6.880;2023-07-20T01:01:20;1.30;;;1.20;;
12059;SDS011;6091;51.432;6.880;2023-07-20T01:03:48;1.85;;;1.40;;
12059;SDS011;6091;51.432;6.880;2023-07-20T01:06:19;2.08;;;1.35;;
12059;SDS011;6091;51.432;6.880;2023-07-20T01:09:14;2.40;;;1.30;;
12059;SDS011;6091;51.432;6.880;2023-07-20T01:12:08;1.30;;;1.20;;
12059;SDS011;6091;51.432;6.880;2023-07-20T01:15:07;1.58;;;1.25;;
12059;SDS011;6091;51.432;6.880;2023-07-20T01:17:35;1.92;;;1.10;;
12059;SDS011;6091;51.432;6.880;2023-07-20T01:20:02;2.38;;;1.33;;
12059;SDS011;6091;51.432;6.880;2023-07-20T01:28:28;1.30;;;1.20;;
12059;SDS011;6091;51.432;6.880;2023-07-20T01:33:55;1.88;;;1.50;;
12059;SDS011;6091;51.432;6.880;2023-07-20T01:36:26;1.42;;;1.23;;
12059;SDS011;6091;51.432;6.880;2023-07-20T01:38:57;2.00;;;1.50;;
12059;SDS011;6091;51.432;6.880;2023-07-20T01:41:24;1.90;;;1.52;;
12059;SDS011;6091;51.432;6.880;2023-07-20T01:43:51;1.45;;;1.35;;
12059;SDS011;6091;51.432;6.880;2023-07-20T01:46:18;1.33;;;1.23;;
12059;SDS011;6091;51.432;6.880;2023-07-20T01:48:49;1.70;;;1.40;;
12059;SDS011;6091;51.432;6.880;2023-07-20T01:51:17;1.45;;;1.35;;
12059;SDS011;6091;51.432;6.880;2023-07-20T01:53:44;1.52;;;1.20;;
12059;SDS011;6091;51.432;6.880;2023-07-20T01:56:11;1.33;;;1.23;;
12059;SDS011;6091;51.432;6.880;2023-07-20T01:58:38;1.77;;;1.23;;
12059;SDS011;6091;51.432;6.880;2023-07-20T02:01:05;1.05;;;1.02;;
12059;SDS011;6091;51.432;6.880;2023-07-20T02:03:32;1.40;;;1.30;;
12059;SDS011;6091;51.432;6.880;2023-07-20T02:06:00;1.10;;;1.10;;
12059;SDS011;6091;51.432;6.880;2023-07-20T02:08:27;1.65;;;1.50;;
12059;SDS011;6091;51.432;6.880;2023-07-20T02:10:54;1.45;;;1.35;;
12059;SDS011;6091;51.432;6.880;2023-07-20T02:13:21;1.50;;;1.35;;
12059;SDS011;6091;51.432;6.880;2023-07-20T02:15:48;1.73;;;1.20;;
12059;SDS011;6091;51.432;6.880;2023-07-20T02:18:15;2.30;;;1.35;;
12059;SDS011;6091;51.432;6.880;2023-07-20T02:20:42;1.38;;;1.27;;
12059;SDS011;6091;51.432;6.880;2023-07-20T02:23:09;2.45;;;1.42;;
12059;SDS011;6091;51.432;6.880;2023-07-20T02:25:37;1.58;;;1.48;;
12059;SDS011;6091;51.432;6.880;2023-07-20T02:28:08;1.50;;;1.30;;
12059;SDS011;6091;51.432;6.880;2023-07-20T02:30:37;2.20;;;1.70;;
12059;SDS011;6091;51.432;6.880;2023-07-20T02:33:05;2.17;;;1.55;;
12059;SDS011;6091;51.432;6.880;2023-07-20T02:35:34;1.77;;;1.60;;
12059;SDS011;6091;51.432;6.880;2023-07-20T02:38:01;1.52;;;1.40;;
12059;SDS011;6091;51.432;6.880;2023-07-20T02:40:29;3.38;;;1.33;;
12059;SDS011;6091;51.432;6.880;2023-07-20T02:42:56;1.80;;;1.70;;
12059;SDS011;6091;51.432;6.880;2023-07-20T02:45:23;1.60;;;1.50;;
12059;SDS011;6091;51.432;6.880;2023-07-20T02:47:50;2.38;;;1.98;;
12059;SDS011;6091;51.432;6.880;2023-07-20T02:50:17;1.63;;;1.50;;
12059;SDS011;6091;51.432;6.880;2023-07-20T02:52:45;1.83;;;1.50;;
12059;SDS011;6091;51.432;6.880;2023-07-20T02:55:12;2.20;;;1.58;;
12059;SDS011;6091;51.432;6.880;2023-07-20T02:57:39;2.25;;;2.03;;
12059;SDS011;6091;51.432;6.880;2023-07-20T03:00:06;3.40;;;1.80;;
12059;SDS011;6091;51.432;6.880;2023-07-20T03:02:34;1.73;;;1.60;;
12059;SDS011;6091;51.432;6.880;2023-07-20T03:05:01;1.65;;;1.55;;
12059;SDS011;6091;51.432;6.880;2023-07-20T03:07:34;1.65;;;1.50;;
12059;SDS011;6091;51.432;6.880;2023-07-20T03:10:02;2.53;;;1.70;;
12059;SDS011;6091;51.432;6.880;2023-07-20T03:12:29;2.10;;;1.70;;
12059;SDS011;6091;51.432;6.880;2023-07-20T03:14:56;2.03;;;1.80;;
12059;SDS011;6091;51.432;6.880;2023-07-20T03:17:23;1.70;;;1.60;;
12059;SDS011;6091;51.432;6.880;2023-07-20T03:19:50;2.20;;;2.00;;
12059;SDS011;6091;51.432;6.880;2023-07-20T03:22:18;1.63;;;1.52;;
12059;SDS011;6091;51.432;6.880;2023-07-20T03:24:45;1.80;;;1.60;;
12059;SDS011;6091;51.432;6.880;2023-07-20T03:27:12;1.85;;;1.40;;
12059;SDS011;6091;51.432;6.880;2023-07-20T03:29:39;1.80;;;1.63;;
12059;SDS011;6091;51.432;6.880;2023-07-20T03:32:06;1.42;;;1.30;;
12059;SDS011;6091;51.432;6.880;2023-07-20T03:34:34;1.65;;;1.50;;
12059;SDS011;6091;51.432;6.880;2023-07-20T03:37:01;1.73;;;1.42;;
12059;SDS011;6091;51.432;6.880;2023-07-20T03:39:30;1.65;;;1.55;;
12059;SDS011;6091;51.432;6.880;2023-07-20T03:41:58;1.63;;;1.52;;
12059;SDS011;6091;51.432;6.880;2023-07-20T03:44:25;2.30;;;2.10;;
12059;SDS011;6091;51.432;6.880;2023-07-20T03:46:53;2.25;;;2.00;;
12059;SDS011;6091;51.432;6.880;2023-07-20T03:49:20;1.90;;;1.80;;
12059;SDS011;6091;51.432;6.880;2023-07-20T03:51:47;2.55;;;1.80;;
12059;SDS011;6091;51.432;6.880;2023-07-20T03:54:14;1.92;;;1.70;;
12059;SDS011;6091;51.432;6.880;2023-07-20T03:56:41;1.85;;;1.60;;
12059;SDS011;6091;51.432;6.880;2023-07-20T03:59:08;2.15;;;2.00;;
12059;SDS011;6091;51.432;6.880;2023-07-20T04:01:35;3.75;;;2.15;;
12059;SDS011;6091;51.432;6.880;2023-07-20T04:04:07;1.90;;;1.80;;
12059;SDS011;6091;51.432;6.880;2023-07-20T04:06:35;2.35;;;2.10;;
12059;SDS011;6091;51.432;6.880;2023-07-20T04:09:02;2.33;;;1.70;;
12059;SDS011;6091;51.432;6.880;2023-07-20T04:11:31;2.58;;;1.70;;
12059;SDS011;6091;51.432;6.880;2023-07-20T04:13:58;1.77;;;1.58;;
12059;SDS011;6091;51.432;6.880;2023-07-20T04:16:25;1.80;;;1.70;;
12059;SDS011;6091;51.432;6.880;2023-07-20T04:18:56;1.95;;;1.83;;
12059;SDS011;6091;51.432;6.880;2023-07-20T04:21:27;1.95;;;1.85;;
12059;SDS011;6091;51.432;6.880;2023-07-20T04:23:54;2.00;;;1.80;;
12059;SDS011;6091;51.432;6.880;2023-07-20T04:26:22;2.08;;;1.88;;
12059;SDS011;6091;51.432;6.880;2023-07-20T04:28:49;2.33;;;1.75;;
12059;SDS011;6091;51.432;6.880;2023-07-20T04:31:17;2.63;;;2.40;;
12059;SDS011;6091;51.432;6.880;2023-07-20T04:33:44;2.40;;;2.20;;
12059;SDS011;6091;51.432;6.880;2023-07-20T04:36:11;2.30;;;2.10;;
12059;SDS011;6091;51.432;6.880;2023-07-20T04:38:38;2.20;;;2.00;;
12059;SDS011;6091;51.432;6.880;2023-07-20T04:41:05;2.55;;;2.35;;
12059;SDS011;6091;51.432;6.880;2023-07-20T04:43:33;2.45;;;2.25;;
12059;SDS011;6091;51.432;6.880;2023-07-20T04:46:00;2.28;;;2.08;;
12059;SDS011;6091;51.432;6.880;2023-07-20T04:48:27;2.65;;;2.45;;
12059;SDS011;6091;51.432;6.880;2023-07-20T04:50:54;2.83;;;1.90;;
12059;SDS011;6091;51.432;6.880;2023-07-20T04:53:22;2.38;;;2.25;;
12059;SDS011;6091;51.432;6.880;2023-07-20T04:55:49;2.28;;;1.65;;
12059;SDS011;6091;51.432;6.880;2023-07-20T04:58:18;2.58;;;1.85;;
12059;SDS011;6091;51.432;6.880;2023-07-20T05:00:50;2.33;;;2.13;;
12059;SDS011;6091;51.432;6.880;2023-07-20T05:03:18;2.60;;;2.40;;
12059;SDS011;6091;51.432;6.880;2023-07-20T05:05:46;1.80;;;1.70;;
12059;SDS011;6091;51.432;6.880;2023-07-20T05:08:15;2.20;;;2.00;;
12059;SDS011;6091;51.432;6.880;2023-07-20T05:10:43;2.50;;;2.30;;
12059;SDS011;6091;51.432;6.880;2023-07-20T05:13:10;2.97;;;2.67;;
12059;SDS011;6091;51.432;6.880;2023-07-20T05:15:37;3.10;;;2.80;;
12059;SDS011;6091;51.432;6.880;2023-07-20T05:18:05;2.63;;;1.95;;
12059;SDS011;6091;51.432;6.880;2023-07-20T05:20:32;2.42;;;2.22;;
12059;SDS011;6091;51.432;6.880;2023-07-20T05:23:01;2.72;;;2.53;;
12059;SDS011;6091;51.432;6.880;2023-07-20T05:25:28;2.47;;;2.28;;
12059;SDS011;6091;51.432;6.880;2023-07-20T05:27:56;2.40;;;2.20;;
12059;SDS011;6091;51.432;6.880;2023-07-20T05:30:23;2.03;;;1.92;;
12059;SDS011;6091;51.432;6.880;2023-07-20T05:32:51;1.95;;;1.85;;
12059;SDS011;6091;51.432;6.880;2023-07-20T05:35:19;1.83;;;1.70;;
12059;SDS011;6091;51.432;6.880;2023-07-20T05:37:46;1.98;;;1.83;;
12059;SDS011;6091;51.432;6.880;2023-07-20T05:40:14;1.65;;;1.55;;
12059;SDS011;6091;51.432;6.880;2023-07-20T05:42:45;1.70;;;1.60;;
12059;SDS011;6091;51.432;6.880;2023-07-20T05:45:14;1.70;;;1.42;;
12059;SDS011;6091;51.432;6.880;2023-07-20T05:47:41;2.33;;;1.77;;
12059;SDS011;6091;51.432;6.880;2023-07-20T05:50:09;1.95;;;1.60;;
12059;SDS011;6091;51.432;6.880;2023-07-20T05:52:37;2.03;;;1.80;;
12059;SDS011;6091;51.432;6.880;2023-07-20T05:55:05;1.85;;;1.70;;
12059;SDS011;6091;51.432;6.880;2023-07-20T05:57:33;1.52;;;1.42;;
12059;SDS011;6091;51.432;6.880;2023-07-20T06:00:02;2.70;;;2.45;;
12059;SDS011;6091;51.432;6.880;2023-07-20T06:02:30;2.15;;;1.95;;
12059;SDS011;6091;51.432;6.880;2023-07-20T06:04:59;3.05;;;2.60;;
12059;SDS011;6091;51.432;6.880;2023-07-20T06:07:26;3.00;;;2.00;;
12059;SDS011;6091;51.432;6.880;2023-07-20T06:09:53;2.65;;;2.45;;
12059;SDS011;6091;51.432;6.880;2023-07-20T06:12:20;3.28;;;2.58;;
12059;SDS011;6091;51.432;6.880;2023-07-20T06:14:47;2.10;;;1.90;;
12059;SDS011;6091;51.432;6.880;2023-07-20T06:17:14;2.45;;;1.60;;
12059;SDS011;6091;51.432;6.880;2023-07-20T06:19:42;2.70;;;2.17;;
12059;SDS011;6091;51.432;6.880;2023-07-20T06:22:10;3.25;;;2.10;;
12059;SDS011;6091;51.432;6.880;2023-07-20T06:24:37;3.08;;;1.90;;
12059;SDS011;6091;51.432;6.880;2023-07-20T06:27:04;2.10;;;1.90;;
12059;SDS011;6091;51.432;6.880;2023-07-20T06:29:32;3.67;;;2.17;;
12059;SDS011;6091;51.432;6.880;2023-07-20T06:31:59;2.50;;;2.30;;
12059;SDS011;6091;51.432;6.880;2023-07-20T06:34:26;2.15;;;1.95;;
12059;SDS011;6091;51.432;6.880;2023-07-20T06:37:03;2.25;;;2.05;;
12059;SDS011;6091;51.432;6.880;2023-07-20T06:39:30;2.60;;;1.80;;
12059;SDS011;6091;51.432;6.880;2023-07-20T06:42:00;2.17;;;1.98;;
12059;SDS011;6091;51.432;6.880;2023-07-20T06:44:28;2.30;;;2.08;;
12059;SDS011;6091;51.432;6.880;2023-07-20T06:46:55;2.60;;;1.77;;
12059;SDS011;6091;51.432;6.880;2023-07-20T06:49:25;2.95;;;1.70;;
12059;SDS011;6091;51.432;6.880;2023-07-20T06:51:54;3.17;;;1.83;;
12059;SDS011;6091;51.432;6.880;2023-07-20T06:54:21;2.70;;;2.17;;
12059;SDS011;6091;51.432;6.880;2023-07-20T06:56:49;2.00;;;1.80;;
12059;SDS011;6091;51.432;6.880;2023-07-20T06:59:20;1.70;;;1.60;;
12059;SDS011;6091;51.432;6.880;2023-07-20T07:01:47;2.70;;;1.58;;
12059;SDS011;6091;51.432;6.880;2023-07-20T07:04:16;2.55;;;1.65;;
12059;SDS011;6091;51.432;6.880;2023-07-20T07:06:44;1.83;;;1.50;;
12059;SDS011;6091;51.432;6.880;2023-07-20T07:09:11;1.92;;;1.55;;
12059;SDS011;6091;51.432;6.880;2023-07-20T07:11:38;4.20;;;1.55;;
12059;SDS011;6091;51.432;6.880;2023-07-20T07:14:05;4.95;;;1.73;;
12059;SDS011;6091;51.432;6.880;2023-07-20T07:16:34;5.03;;;1.88;;
12059;SDS011;6091;51.432;6.880;2023-07-20T07:19:04;4.90;;;1.60;;
12059;SDS011;6091;51.432;6.880;2023-07-20T07:21:32;5.22;;;1.48;;
12059;SDS011;6091;51.432;6.880;2023-07-20T07:23:59;2.63;;;1.45;;
12059;SDS011;6091;51.432;6.880;2023-07-20T07:26:26;2.63;;;1.70;;
12059;SDS011;6091;51.432;6.880;2023-07-20T07:28:53;7.00;;;1.92;;
12059;SDS011;6091;51.432;6.880;2023-07-20T07:31:20;2.38;;;1.52;;
12059;SDS011;6091;51.432;6.880;2023-07-20T07:33:47;2.88;;;1.40;;
12059;SDS011;6091;51.432;6.880;2023-07-20T07:36:14;2.88;;;1.33;;
12059;SDS011;6091;51.432;6.880;2023-07-20T07:38:42;2.88;;;1.20;;
12059;SDS011;6091;51.432;6.880;2023-07-20T07:41:12;3.17;;;1.45;;
12059;SDS011;6091;51.432;6.880;2023-07-20T07:43:40;1.48;;;1.15;;
12059;SDS011;6091;51.432;6.880;2023-07-20T07:46:07;1.10;;;1.00;;
12059;SDS011;6091;51.432;6.880;2023-07-20T07:48:34;1.67;;;1.00;;
12059;SDS011;6091;51.432;6.880;2023-07-20T07:51:01;1.20;;;0.98;;
12059;SDS011;6091;51.432;6.880;2023-07-20T07:53:28;1.25;;;1.08;;
12059;SDS011;6091;51.432;6.880;2023-07-20T07:55:55;1.48;;;1.00;;
12059;SDS011;6091;51.432;6.880;2023-07-20T07:58:22;1.38;;;1.10;;
12059;SDS011;6091;51.432;6.880;2023-07-20T08:00:50;1.10;;;1.00;;
12059;SDS011;6091;51.432;6.880;2023-07-20T08:03:17;1.10;;;1.00;;
12059;SDS011;6091;51.432;6.880;2023-07-20T08:05:45;1.17;;;1.00;;
12059;SDS011;6091;51.432;6.880;2023-07-20T08:08:12;1.13;;;1.00;;
12059;SDS011;6091;51.432;6.880;2023-07-20T08:10:39;1.77;;;0.80;;
12059;SDS011;6091;51.432;6.880;2023-07-20T08:13:07;1.38;;;1.27;;
12059;SDS011;6091;51.432;6.880;2023-07-20T08:15:35;1.67;;;1.25;;
12059;SDS011;6091;51.432;6.880;2023-07-20T08:18:02;1.48;;;1.17;;
12059;SDS011;6091;51.432;6.880;2023-07-20T08:20:30;3.25;;;1.17;;
12059;SDS011;6091;51.432;6.880;2023-07-20T08:22:58;6.25;;;1.10;;
12059;SDS011;6091;51.432;6.880;2023-07-20T08:25:26;2.22;;;1.15;;
12059;SDS011;6091;51.432;6.880;2023-07-20T08:27:53;2.40;;;0.98;;
12059;SDS011;6091;51.432;6.880;2023-07-20T08:30:21;2.35;;;0.73;;
12059;SDS011;6091;51.432;6.880;2023-07-20T08:32:50;2.58;;;0.80;;
12059;SDS011;6091;51.432;6.880;2023-07-20T08:35:17;1.42;;;0.70;;
12059;SDS011;6091;51.432;6.880;2023-07-20T08:37:47;0.90;;;0.65;;
12059;SDS011;6091;51.432;6.880;2023-07-20T08:40:14;8.18;;;1.63;;
12059;SDS011;6091;51.432;6.880;2023-07-20T08:42:42;0.80;;;0.80;;
12059;SDS011;6091;51.432;6.880;2023-07-20T08:45:10;1.85;;;0.70;;
12059;SDS011;6091;51.432;6.880;2023-07-20T08:47:41;0.65;;;0.60;;
12059;SDS011;6091;51.432;6.880;2023-07-20T08:50:11;1.17;;;0.85;;
12059;SDS011;6091;51.432;6.880;2023-07-20T08:52:40;1.02;;;0.93;;
12059;SDS011;6091;51.432;6.880;2023-07-20T08:55:07;1.77;;;0.90;;
12059;SDS011;6091;51.432;6.880;2023-07-20T08:57:35;1.40;;;1.00;;
12059;SDS011;6091;51.432;6.880;2023-07-20T09:00:06;1.35;;;0.73;;
12059;SDS011;6091;51.432;6.880;2023-07-20T09:02:39;1.77;;;1.20;;
12059;SDS011;6091;51.432;6.880;2023-07-20T09:05:09;1.05;;;0.90;;
12059;SDS011;6091;51.432;6.880;2023-07-20T09:07:36;1.02;;;1.00;;
12059;SDS011;6091;51.432;6.880;2023-07-20T09:10:05;2.05;;;1.20;;
12059;SDS011;6091;51.432;6.880;2023-07-20T09:12:40;0.88;;;0.88;;
12059;SDS011;6091;51.432;6.880;2023-07-20T09:15:10;2.15;;;0.98;;
12059;SDS011;6091;51.432;6.880;2023-07-20T09:17:38;2.70;;;1.00;;
12059;SDS011;6091;51.432;6.880;2023-07-20T09:20:06;1.00;;;0.90;;
12059;SDS011;6091;51.432;6.880;2023-07-20T09:22:37;2.05;;;1.60;;
12059;SDS011;6091;51.432;6.880;2023-07-20T09:25:14;1.88;;;0.90;;
12059;SDS011;6091;51.432;6.880;2023-07-20T09:27:45;1.10;;;1.00;;
12059;SDS011;6091;51.432;6.880;2023-07-20T09:30:15;1.42;;;1.08;;
12059;SDS011;6091;51.432;6.880;2023-07-20T09:32:47;1.90;;;1.50;;
12059;SDS011;6091;51.432;6.880;2023-07-20T09:35:20;1.58;;;1.48;;
12059;SDS011;6091;51.432;6.880;2023-07-20T09:40:27;1.83;;;1.40;;
12059;SDS011;6091;51.432;6.880;2023-07-20T09:42:59;1.52;;;1.38;;
12059;SDS011;6091;51.432;6.880;2023-07-20T09:45:30;1.75;;;1.65;;
12059;SDS011;6091;51.432;6.880;2023-07-20T09:48:03;1.77;;;1.67;;
12059;SDS011;6091;51.432;6.880;2023-07-20T09:50:41;1.80;;;1.70;;
12059;SDS011;6091;51.432;6.880;2023-07-20T09:53:15;1.65;;;1.48;;
12059;SDS011;6091;51.432;6.880;2023-07-20T09:55:45;2.28;;;1.65;;
12059;SDS011;6091;51.432;6.880;2023-07-20T09:58:16;2.08;;;1.83;;
12059;SDS011;6091;51.432;6.880;2023-07-20T10:00:44;3.00;;;1.98;;
12059;SDS011;6091;51.432;6.880;2023-07-20T10:03:21;1.50;;;1.40;;
12059;SDS011;6091;51.432;6.880;2023-07-20T10:05:54;1.70;;;1.60;;
12059;SDS011;6091;51.432;6.880;2023-07-20T10:08:29;1.40;;;1.30;;
12059;SDS011;6091;51.432;6.880;2023-07-20T10:11:04;1.63;;;1.52;;
12059;SDS011;6091;51.432;6.880;2023-07-20T10:13:33;1.63;;;1.52;;
12059;SDS011;6091;51.432;6.880;2023-07-20T10:16:11;1.67;;;1.38;;
12059;SDS011;6091;51.432;6.880;2023-07-20T10:19:11;1.92;;;1.77;;
12059;SDS011;6091;51.432;6.880;2023-07-20T10:21:54;1.60;;;1.50;;
12059;SDS011;6091;51.432;6.880;2023-07-20T10:24:29;1.80;;;1.70;;
12059;SDS011;6091;51.432;6.880;2023-07-20T10:27:00;1.02;;;1.02;;
12059;SDS011;6091;51.432;6.880;2023-07-20T10:29:28;1.60;;;1.40;;
12059;SDS011;6091;51.432;6.880;2023-07-20T10:31:56;1.60;;;1.50;;
12059;SDS011;6091;51.432;6.880;2023-07-20T10:34:24;1.50;;;1.40;;
12059;SDS011;6091;51.432;6.880;2023-07-20T10:36:51;1.65;;;1.48;;
12059;SDS011;6091;51.432;6.880;2023-07-20T10:39:27;3.40;;;1.20;;
12059;SDS011;6091;51.432;6.880;2023-07-20T10:42:02;1.60;;;1.30;;
12059;SDS011;6091;51.432;6.880;2023-07-20T10:44:37;1.38;;;1.27;;
12059;SDS011;6091;51.432;6.880;2023-07-20T10:47:08;1.70;;;1.30;;
12059;SDS011;6091;51.432;6.880;2023-07-20T10:49:57;1.55;;;1.45;;
12059;SDS011;6091;51.432;6.880;2023-07-20T10:52:36;1.30;;;1.20;;
12059;SDS011;6091;51.432;6.880;2023-07-20T10:55:18;1.40;;;1.20;;
12059;SDS011;6091;51.432;6.880;2023-07-20T11:01:27;1.20;;;1.10;;
12059;SDS011;6091;51.432;6.880;2023-07-20T11:03:39;1.05;;;0.95;;
12059;SDS011;6091;51.432;6.880;2023-07-20T11:08:55;1.30;;;1.20;;
12059;SDS011;6091;51.432;6.880;2023-07-20T11:11:43;1.00;;;1.00;;
12059;SDS011;6091;51.432;6.880;2023-07-20T11:14:21;1.30;;;1.20;;
12059;SDS011;6091;51.432;6.880;2023-07-20T11:16:50;1.70;;;1.60;;
12059;SDS011;6091;51.432;6.880;2023-07-20T11:19:20;1.40;;;1.30;;
12059;SDS011;6091;51.432;6.880;2023-07-20T11:21:55;1.83;;;1.40;;
12059;SDS011;6091;51.432;6.880;2023-07-20T11:24:29;1.58;;;1.30;;
12059;SDS011;6091;51.432;6.880;2023-07-20T11:26:58;1.00;;;1.00;;
12059;SDS011;6091;51.432;6.880;2023-07-20T11:29:27;1.20;;;1.10;;
12059;SDS011;6091;51.432;6.880;2023-07-20T11:31:58;1.10;;;1.00;;
12059;SDS011;6091;51.432;6.880;2023-07-20T11:34:31;1.20;;;1.10;;
12059;SDS011;6091;51.432;6.880;2023-07-20T11:37:01;1.30;;;1.20;;
12059;SDS011;6091;51.432;6.880;2023-07-20T11:39:33;1.10;;;0.90;;
12059;SDS011;6091;51.432;6.880;2023-07-20T11:42:00;1.75;;;1.20;;
12059;SDS011;6091;51.432;6.880;2023-07-20T11:44:28;1.42;;;1.23;;
12059;SDS011;6091;51.432;6.880;2023-07-20T11:47:00;1.10;;;1.00;;
12059;SDS011;6091;51.432;6.880;2023-07-20T11:49:38;1.10;;;1.10;;
12059;SDS011;6091;51.432;6.880;2023-07-20T11:52:08;1.40;;;1.30;;
12059;SDS011;6091;51.432;6.880;2023-07-20T11:54:39;1.30;;;1.20;;
12059;SDS011;6091;51.432;6.880;2023-07-20T11:57:17;1.27;;;1.20;;
12059;SDS011;6091;51.432;6.880;2023-07-20T11:59:57;2.53;;;1.00;;
12059;SDS011;6091;51.432;6.880;2023-07-20T12:02:30;1.17;;;1.08;;
12059;SDS011;6091;51.432;6.880;2023-07-20T12:05:01;0.90;;;0.90;;
12059;SDS011;6091;51.432;6.880;2023-07-20T12:07:35;1.00;;;1.00;;
12059;SDS011;6091;51.432;6.880;2023-07-20T12:10:07;0.98;;;0.80;;
12059;SDS011;6091;51.432;6.880;2023-07-20T12:12:39;0.90;;;0.90;;
12059;SDS011;6091;51.432;6.880;2023-07-20T12:15:26;1.50;;;1.10;;
12059;SDS011;6091;51.432;6.880;2023-07-20T12:17:58;1.40;;;1.15;;
12059;SDS011;6091;51.432;6.880;2023-07-20T12:23:01;1.08;;;0.98;;
12059;SDS011;6091;51.432;6.880;2023-07-20T12:25:36;1.10;;;1.00;;
12059;SDS011;6091;51.432;6.880;2023-07-20T12:28:15;0.90;;;0.90;;
12059;SDS011;6091;51.432;6.880;2023-07-20T12:30:44;0.88;;;0.88;;
12059;SDS011;6091;51.432;6.880;2023-07-20T12:33:14;1.00;;;0.93;;
12059;SDS011;6091;51.432;6.880;2023-07-20T12:35:42;0.95;;;0.93;;
12059;SDS011;6091;51.432;6.880;2023-07-20T12:38:10;0.80;;;0.80;;
12059;SDS011;6091;51.432;6.880;2023-07-20T12:40:37;0.95;;;0.95;;
12059;SDS011;6091;51.432;6.880;2023-07-20T12:43:04;1.20;;;1.10;;
12059;SDS011;6091;51.432;6.880;2023-07-20T12:45:33;1.20;;;1.10;;
12059;SDS011;6091;51.432;6.880;2023-07-20T12:48:00;2.10;;;1.00;;
12059;SDS011;6091;51.432;6.880;2023-07-20T12:50:27;0.88;;;0.88;;
12059;SDS011;6091;51.432;6.880;2023-07-20T12:52:54;0.80;;;0.80;;
12059;SDS011;6091;51.432;6.880;2023-07-20T12:55:21;0.80;;;0.80;;
12059;SDS011;6091;51.432;6.880;2023-07-20T12:57:48;1.77;;;0.95;;
12059;SDS011;6091;51.432;6.880;2023-07-20T13:00:16;1.35;;;1.08;;
12059;SDS011;6091;51.432;6.880;2023-07-20T13:02:43;1.60;;;1.02;;
12059;SDS011;6091;51.432;6.880;2023-07-20T13:05:10;2.95;;;1.20;;
12059;SDS011;6091;51.432;6.880;2023-07-20T13:07:38;1.02;;;0.98;;
12059;SDS011;6091;51.432;6.880;2023-07-20T13:10:10;1.02;;;0.90;;
12059;SDS011;6091;51.432;6.880;2023-07-20T13:12:38;1.10;;;1.00;;
12059;SDS011;6091;51.432;6.880;2023-07-20T13:15:06;0.93;;;0.90;;
12059;SDS011;6091;51.432;6.880;2023-07-20T13:17:39;0.90;;;0.80;;
12059;SDS011;6091;51.432;6.880;2023-07-20T13:20:07;1.08;;;0.80;;
12059;SDS011;6091;51.432;6.880;2023-07-20T13:22:37;0.80;;;0.80;;
12059;SDS011;6091;51.432;6.880;2023-07-20T13:25:06;0.80;;;0.80;;
12059;SDS011;6091;51.432;6.880;2023-07-20T13:27:34;0.85;;;0.85;;
12059;SDS011;6091;51.432;6.880;2023-07-20T13:30:03;0.80;;;0.80;;
12059;SDS011;6091;51.432;6.880;2023-07-20T13:32:35;1.20;;;0.80;;
12059;SDS011;6091;51.432;6.880;2023-07-20T13:35:06;0.70;;;0.70;;
12059;SDS011;6091;51.432;6.880;2023-07-20T13:37:34;2.15;;;0.95;;
12059;SDS011;6091;51.432;6.880;2023-07-20T13:40:01;0.70;;;0.70;;
12059;SDS011;6091;51.432;6.880;2023-07-20T13:42:33;0.70;;;0.70;;
12059;SDS011;6091;51.432;6.880;2023-07-20T13:45:01;0.70;;;0.70;;
12059;SDS011;6091;51.432;6.880;2023-07-20T13:47:31;1.45;;;0.70;;
12059;SDS011;6091;51.432;6.880;2023-07-20T13:50:01;1.80;;;0.73;;
12059;SDS011;6091;51.432;6.880;2023-07-20T13:52:30;0.85;;;0.80;;
12059;SDS011;6091;51.432;6.880;2023-07-20T13:55:00;1.90;;;0.93;;
12059;SDS011;6091;51.432;6.880;2023-07-20T13:57:34;0.85;;;0.73;;
12059;SDS011;6091;51.432;6.880;2023-07-20T14:00:02;1.23;;;1.00;;
12059;SDS011;6091;51.432;6.880;2023-07-20T14:02:35;0.80;;;0.70;;
12059;SDS011;6091;51.432;6.880;2023-07-20T14:05:06;1.00;;;0.77;;
12059;SDS011;6091;51.432;6.880;2023-07-20T14:07:37;1.02;;;1.00;;
12059;SDS011;6091;51.432;6.880;2023-07-20T14:10:04;1.27;;;1.17;;
12059;SDS011;6091;51.432;6.880;2023-07-20T14:12:35;3.20;;;0.98;;
12059;SDS011;6091;51.432;6.880;2023-07-20T14:15:03;1.10;;;1.00;;
12059;SDS011;6091;51.432;6.880;2023-07-20T14:17:31;1.70;;;1.00;;
12059;SDS011;6091;51.432;6.880;2023-07-20T14:19:58;0.77;;;0.77;;
12059;SDS011;6091;51.432;6.880;2023-07-20T14:22:25;0.80;;;0.80;;
12059;SDS011;6091;51.432;6.880;2023-07-20T14:24:52;1.83;;;0.90;;
12059;SDS011;6091;51.432;6.880;2023-07-20T14:27:20;1.23;;;0.80;;
12059;SDS011;6091;51.432;6.880;2023-07-20T14:29:47;1.02;;;0.88;;
12059;SDS011;6091;51.432;6.880;2023-07-20T14:32:14;0.80;;;0.80;;
12059;SDS011;6091;51.432;6.880;2023-07-20T14:34:41;1.05;;;1.00;;
12059;SDS011;6091;51.432;6.880;2023-07-20T14:37:08;1.42;;;0.82;;
12059;SDS011;6091;51.432;6.880;2023-07-20T14:39:35;2.55;;;1.08;;
12059;SDS011;6091;51.432;6.880;2023-07-20T14:42:02;1.33;;;0.90;;
12059;SDS011;6091;51.432;6.880;2023-07-20T14:44:30;1.48;;;1.10;;
12059;SDS011;6091;51.432;6.880;2023-07-20T14:46:59;1.10;;;1.00;;
12059;SDS011;6091;51.432;6.880;2023-07-20T14:49:39;1.42;;;0.90;;
12059;SDS011;6091;51.432;6.880;2023-07-20T14:52:06;1.05;;;0.95;;
12059;SDS011;6091;51.432;6.880;2023-07-20T14:54:37;1.05;;;0.95;;
12059;SDS011;6091;51.432;6.880;2023-07-20T14:57:04;2.42;;;1.08;;
12059;SDS011;6091;51.432;6.880;2023-07-20T14:59:33;1.08;;;0.95;;
12059;SDS011;6091;51.432;6.880;2023-07-20T15:02:00;1.60;;;1.00;;
12059;SDS011;6091;51.432;6.880;2023-07-20T15:04:27;1.40;;;1.10;;
12059;SDS011;6091;51.432;6.880;2023-07-20T15:06:55;1.70;;;0.90;;
12059;SDS011;6091;51.432;6.880;2023-07-20T15:09:23;1.25;;;1.10;;
12059;SDS011;6091;51.432;6.880;2023-07-20T15:11:50;2.55;;;0.90;;
12059;SDS011;6091;51.432;6.880;2023-07-20T15:14:17;4.53;;;1.10;;
12059;SDS011;6091;51.432;6.880;2023-07-20T15:16:44;2.15;;;1.20;;
12059;SDS011;6091;51.432;6.880;2023-07-20T15:19:15;1.35;;;1.13;;
12059;SDS011;6091;51.432;6.880;2023-07-20T15:21:43;1.35;;;0.90;;
12059;SDS011;6091;51.432;6.880;2023-07-20T15:24:10;1.60;;;0.95;;
12059;SDS011;6091;51.432;6.880;2023-07-20T15:26:37;1.20;;;1.00;;
12059;SDS011;6091;51.432;6.880;2023-07-20T15:29:05;0.82;;;0.82;;
12059;SDS011;6091;51.432;6.880;2023-07-20T15:31:32;1.42;;;0.90;;
12059;SDS011;6091;51.432;6.880;2023-07-20T15:34:02;1.60;;;0.90;;